Time;durP1;ratioP1;P1;durP2;ratioP2;P2;SDS_P1;SDS_P2;PMS_P1;PMS_P2;Temp;Humidity;BMP_temperature;BMP_pressure;BME280_temperature;BME280_humidity;BME280_pressure;Samples;Min_cycle;Max_cycle;Signal;HPM_P1;HPM_P2
2023/07/01 00:01:28;;;;;;;98.95;53.80;;;;;;;21.98;75.24;100576.56;6203236;23;20189;-80
2023/07/01 00:04:18;;;;;;;79.43;49.95;;;;;;;21.99;74.73;100563.84;6229486;23;20020;-81
2023/07/01 00:06:58;;;;;;;75.50;49.80;;;;;;;22.12;73.71;100552.19;6226707;22;20027;-80
2023/07/01 00:09:25;;;;;;;83.22;51.17;;;;;;;22.01;74.21;100539.34;6246621;23;20255;-80
2023/07/01 00:11:53;;;;;;;83.20;51.75;;;;;;;21.81;74.45;100525.88;6232645;23;20028;-81
2023/07/01 00:14:19;;;;;;;82.82;53.50;;;;;;;21.91;74.42;100532.50;6244561;22;20218;-80
2023/07/01 00:16:49;;;;;;;75.40;49.67;;;;;;;22.01;74.21;100552.84;6231725;23;20020;-82
2023/07/01 00:19:17;;;;;;;84.10;57.45;;;;;;;21.81;74.45;100502.41;6232158;23;20023;-80
2023/07/01 00:21:49;;;;;;;87.07;57.55;;;;;;;21.74;74.91;100502.41;6233387;22;20630;-81
2023/07/01 00:24:18;;;;;;;88.68;59.03;;;;;;;21.98;75.16;100544.13;6232992;23;20023;-80
2023/07/01 00:26:48;;;;;;;90.88;58.90;;;;;;;21.50;74.64;100474.22;6233064;23;20095;-80
2023/07/01 00:29:25;;;;;;;89.28;60.13;;;;;;;21.82;75.29;100514.88;6242472;23;20489;-82
2023/07/01 00:31:52;;;;;;;85.60;58.28;;;;;;;21.70;75.09;100486.81;6233387;23;20027;-79
2023/07/01 00:34:19;;;;;;;89.88;60.35;;;;;;;21.97;75.09;100534.34;6231861;23;20028;-80
2023/07/01 00:36:48;;;;;;;85.63;58.25;;;;;;;22.08;74.80;100546.38;6242472;23;20381;-80
2023/07/01 00:39:15;;;;;;;90.05;58.35;;;;;;;21.59;74.24;100452.38;6244557;22;20107;-81
2023/07/01 00:41:42;;;;;;;57.90;39.63;;;;;;;21.89;74.81;100510.25;6241809;23;20016;-80
2023/07/01 00:44:08;;;;;;;91.20;57.47;;;;;;;21.75;74.72;100492.44;6243553;22;20023;-80
2023/07/01 00:46:35;;;;;;;85.10;56.13;;;;;;;21.94;74.70;100532.09;6231819;23;20031;-80
2023/07/01 00:49:07;;;;;;;91.07;53.75;;;;;;;21.94;74.30;100529.38;6242334;23;20016;-80
2023/07/01 00:51:34;;;;;;;91.28;56.03;;;;;;;21.79;74.70;100523.38;6241870;22;20410;-80
2023/07/01 00:54:01;;;;;;;83.88;56.15;;;;;;;21.94;74.81;100550.16;6231666;23;20058;-80
2023/07/01 00:56:30;;;;;;;82.55;53.17;;;;;;;21.95;74.70;100549.94;6226515;23;20105;-79
2023/07/01 00:58:58;;;;;;;74.60;50.42;;;;;;;21.73;74.78;100519.66;6238317;22;20074;-79
2023/07/01 01:01:37;;;;;;;76.45;51.70;;;;;;;21.95;74.81;100560.75;6241234;23;20503;-79
2023/07/01 01:04:35;;;;;;;96.43;55.55;;;;;;;21.90;74.94;100555.16;6244980;22;20347;-80
2023/07/01 01:07:29;;;;;;;79.88;50.17;;;;;;;21.73;74.86;100516.97;6231347;23;20388;-80
2023/07/01 01:10:25;;;;;;;76.50;49.63;;;;;;;21.86;74.35;100526.06;6212522;22;20031;-81
2023/07/01 01:12:57;;;;;;;80.45;50.28;;;;;;;21.73;74.26;100508.03;6230248;22;20106;-80
2023/07/01 01:15:25;;;;;;;72.80;46.60;;;;;;;21.81;74.56;100518.59;6230597;23;20020;-77
2023/07/01 01:17:57;;;;;;;78.43;46.33;;;;;;;21.99;74.17;100542.25;6241411;22;20016;-79
2023/07/01 01:20:30;;;;;;;80.68;49.28;;;;;;;21.99;74.08;100553.03;6232120;23;20028;-79
2023/07/01 01:23:05;;;;;;;49.67;32.75;;;;;;;21.94;74.65;100556.41;6230790;23;20073;-80
2023/07/01 01:25:54;;;;;;;85.30;54.35;;;;;;;22.04;74.04;100560.53;6231017;23;20016;-79
2023/07/01 01:28:21;;;;;;;83.50;53.35;;;;;;;21.91;73.91;100540.59;6240520;23;20023;-79
2023/07/01 01:30:53;;;;;;;83.93;54.00;;;;;;;21.68;74.71;100524.06;6232474;23;20017;-80
2023/07/01 01:33:23;;;;;;;92.35;54.83;;;;;;;21.74;75.23;100536.72;6231616;23;20427;-81
2023/07/01 01:36:00;;;;;;;85.97;54.03;;;;;;;21.31;75.45;100469.63;6231802;22;20451;-78
2023/07/01 01:38:33;;;;;;;87.30;54.15;;;;;;;21.87;75.21;100552.91;6225864;23;20103;-79
2023/07/01 01:41:07;;;;;;;95.75;54.47;;;;;;;21.80;75.13;100527.78;6240868;22;20050;-78
2023/07/01 01:43:52;;;;;;;82.80;53.28;;;;;;;21.68;74.33;100487.06;6243018;23;20100;-79
2023/07/01 01:46:21;;;;;;;85.95;56.03;;;;;;;21.80;74.70;100516.97;6234912;23;20048;-77
2023/07/01 01:48:48;;;;;;;79.78;53.15;;;;;;;21.84;74.69;100531.69;6233852;23;20271;-80
2023/07/01 01:51:21;;;;;;;89.18;56.15;;;;;;;21.85;75.24;100530.66;6238767;23;20027;-80
2023/07/01 01:53:51;;;;;;;93.05;59.92;;;;;;;21.79;74.96;100517.97;6243570;23;20031;-79
2023/07/01 01:56:20;;;;;;;96.40;58.60;;;;;;;21.86;75.12;100524.19;6233314;23;20258;-80
2023/07/01 01:58:50;;;;;;;88.82;59.67;;;;;;;21.84;75.26;100528.97;6247212;22;20218;-80
2023/07/01 02:01:17;;;;;;;89.93;57.78;;;;;;;21.72;75.56;100509.06;6243236;23;20028;-79
2023/07/01 02:03:46;;;;;;;99.68;61.80;;;;;;;21.74;76.03;100512.38;6231845;23;20024;-80
2023/07/01 02:06:13;;;;;;;65.47;41.72;;;;;;;21.73;76.10;100516.16;6227755;23;20350;-80
2023/07/01 02:08:40;;;;;;;107.38;66.78;;;;;;;21.67;76.24;100500.78;6218374;23;20027;-79
2023/07/01 02:11:06;;;;;;;95.90;62.17;;;;;;;21.84;75.19;100509.25;6215043;23;20016;-79
2023/07/01 02:13:33;;;;;;;81.22;54.75;;;;;;;21.74;75.73;100515.09;6216656;23;20115;-80
2023/07/01 02:16:00;;;;;;;102.70;63.28;;;;;;;21.59;76.15;100503.72;6214527;23;20016;-79
2023/07/01 02:18:29;;;;;;;84.40;55.53;;;;;;;21.65;76.14;100505.53;6187804;22;20263;-79
2023/07/01 02:20:58;;;;;;;71.35;45.30;;;;;;;21.46;76.18;100466.78;6186089;23;20020;-80
2023/07/01 02:23:25;;;;;;;98.63;63.08;;;;;;;21.92;75.07;100526.06;6175275;23;20020;-80
2023/07/01 02:25:52;;;;;;;103.07;63.53;;;;;;;21.91;74.67;100529.78;6204292;22;20020;-78
2023/07/01 02:28:19;;;;;;;99.18;63.67;;;;;;;21.71;75.08;100510.94;6213131;23;20103;-79
2023/07/01 02:30:47;;;;;;;92.80;59.97;;;;;;;21.43;75.34;100468.00;6209565;22;20458;-81
2023/07/01 02:33:14;;;;;;;92.53;58.97;;;;;;;21.83;75.08;100535.44;6214704;23;20537;-79
2023/07/01 02:35:42;;;;;;;87.63;55.65;;;;;;;21.80;74.98;100527.78;6203163;23;20701;-81
2023/07/01 02:38:11;;;;;;;86.43;55.40;;;;;;;21.80;75.55;100516.09;6197599;23;20325;-79
2023/07/01 02:40:38;;;;;;;92.80;59.33;;;;;;;21.70;74.76;100484.13;6201938;22;20016;-81
2023/07/01 02:43:05;;;;;;;95.18;60.00;;;;;;;21.71;74.79;100481.22;6193217;23;20027;-78
2023/07/01 02:45:31;;;;;;;103.03;61.25;;;;;;;21.74;74.71;100488.06;6185907;23;20314;-80
2023/07/01 02:48:05;;;;;;;102.28;62.53;;;;;;;21.59;75.01;100477.53;6190666;22;20802;-79
2023/07/01 02:50:39;;;;;;;102.13;64.95;;;;;;;21.84;75.11;100518.19;6164002;23;20363;-79
2023/07/01 02:53:08;;;;;;;104.13;65.28;;;;;;;21.61;75.12;100485.44;6158197;23;20305;-80
2023/07/01 02:55:36;;;;;;;101.75;63.47;;;;;;;21.78;75.61;100519.03;6193094;22;20020;-80
2023/07/01 02:58:05;;;;;;;104.55;68.05;;;;;;;21.66;76.12;100523.44;6173032;23;20100;-80
2023/07/01 03:00:33;;;;;;;82.18;51.35;;;;;;;21.68;76.32;100518.66;6188678;23;20074;-78
2023/07/01 03:03:06;;;;;;;106.15;70.70;;;;;;;21.37;76.24;100458.00;6200912;22;20116;-79
2023/07/01 03:05:38;;;;;;;103.97;67.57;;;;;;;21.69;74.94;100469.78;6204734;22;20175;-80
2023/07/01 03:08:13;;;;;;;103.57;65.93;;;;;;;21.67;75.53;100479.16;6181922;22;20016;-79
2023/07/01 03:10:47;;;;;;;101.38;66.47;;;;;;;21.67;75.53;100489.97;6180168;22;20035;-78
2023/07/01 03:13:23;;;;;;;101.22;65.88;;;;;;;21.78;75.61;100508.22;6200631;22;20286;-80
2023/07/01 03:15:54;;;;;;;117.05;75.65;;;;;;;21.59;75.70;100484.81;6177231;22;20507;-79
2023/07/01 03:18:22;;;;;;;109.18;71.47;;;;;;;21.78;75.67;100508.22;6187196;22;20296;-81
2023/07/01 03:20:53;;;;;;;76.15;51.08;;;;;;;21.76;75.66;100511.13;6204942;22;20039;-81
2023/07/01 03:23:19;;;;;;;106.00;66.28;;;;;;;21.63;75.83;100483.34;6205464;22;20613;-80
2023/07/01 03:25:52;;;;;;;106.47;67.10;;;;;;;21.65;75.63;100498.28;6192640;22;20258;-80
2023/07/01 03:28:30;;;;;;;89.85;56.58;;;;;;;21.77;75.57;100501.16;6202306;22;20031;-79
2023/07/01 03:30:57;;;;;;;96.88;62.08;;;;;;;21.53;74.47;100441.41;6203996;22;20015;-81
2023/07/01 03:33:28;;;;;;;97.13;57.67;;;;;;;21.98;74.01;100508.97;6216957;22;20456;-80
2023/07/01 03:36:00;;;;;;;102.43;63.00;;;;;;;21.51;74.56;100443.47;6239111;22;20016;-81
2023/07/01 03:38:27;;;;;;;101.35;60.33;;;;;;;21.85;74.74;100505.50;6182307;22;20015;-79
2023/07/01 03:40:53;;;;;;;86.30;52.53;;;;;;;22.04;74.93;100511.88;6225370;22;20495;-81
2023/07/01 03:43:24;;;;;;;103.40;63.97;;;;;;;22.10;73.86;100511.84;6229094;22;20241;-80
2023/07/01 03:45:51;;;;;;;99.53;58.38;;;;;;;22.04;73.01;100490.25;6176628;22;20031;-81
2023/07/01 03:48:18;;;;;;;90.15;53.85;;;;;;;21.64;73.29;100426.38;6184768;22;20159;-82
2023/07/01 03:50:45;;;;;;;106.90;62.78;;;;;;;21.70;73.43;100436.34;6199417;22;20430;-80
2023/07/01 03:53:14;;;;;;;102.40;61.95;;;;;;;21.78;73.96;100465.00;6202959;22;20027;-79
2023/07/01 03:55:40;;;;;;;110.65;66.32;;;;;;;21.75;73.97;100473.53;6190976;22;20391;-79
2023/07/01 03:58:07;;;;;;;106.18;61.47;;;;;;;21.46;73.77;100405.47;6203264;22;20058;-78
2023/07/01 04:00:34;;;;;;;112.93;64.40;;;;;;;21.85;74.05;100481.19;6179333;22;20347;-79
2023/07/01 04:03:10;;;;;;;111.68;62.78;;;;;;;21.82;73.75;100465.38;6208417;22;20065;-79
2023/07/01 04:05:37;;;;;;;102.32;58.42;;;;;;;21.87;73.59;100450.22;6216129;22;20015;-79
2023/07/01 04:08:10;;;;;;;110.93;64.30;;;;;;;21.84;73.87;100458.72;6197000;22;20261;-81
2023/07/01 04:10:43;;;;;;;104.18;62.97;;;;;;;21.08;73.95;100345.94;6189106;22;20403;-81
2023/07/01 04:13:11;;;;;;;105.57;61.13;;;;;;;21.64;74.49;100431.78;6199082;22;20385;-80
2023/07/01 04:15:42;;;;;;;99.45;54.92;;;;;;;21.73;74.16;100440.50;6180736;22;20116;-79
2023/07/01 04:18:09;;;;;;;92.18;51.75;;;;;;;21.55;74.47;100409.59;6202550;22;20030;-79
2023/07/01 04:20:42;;;;;;;95.82;54.05;;;;;;;21.83;73.66;100448.16;6191631;22;20081;-80
2023/07/01 04:23:17;;;;;;;91.22;52.50;;;;;;;21.73;74.08;100435.09;6161503;22;20238;-80
2023/07/01 04:26:03;;;;;;;94.45;54.28;;;;;;;21.49;73.53;100406.91;6146457;22;20106;-80
2023/07/01 04:28:30;;;;;;;82.55;49.35;;;;;;;21.87;73.45;100463.72;6205939;22;20020;-80
2023/07/01 04:30:57;;;;;;;93.63;53.95;;;;;;;20.36;74.18;100250.59;6195678;22;20047;-80
2023/07/01 04:33:30;;;;;;;84.78;46.58;;;;;;;21.79;74.58;100473.94;6193802;22;20627;-82
2023/07/01 04:36:05;;;;;;;82.85;48.33;;;;;;;21.87;73.58;100482.63;6158837;22;20555;-81
2023/07/01 04:38:41;;;;;;;85.57;50.53;;;;;;;21.70;74.31;100478.72;6177827;22;20024;-80
2023/07/01 04:41:08;;;;;;;106.60;60.40;;;;;;;21.75;74.21;100468.13;6184144;22;20027;-77
2023/07/01 04:43:36;;;;;;;98.20;55.75;;;;;;;21.48;73.97;100422.31;6204541;22;20465;-80
2023/07/01 04:46:03;;;;;;;98.30;58.55;;;;;;;21.57;74.09;100449.06;6193868;22;20290;-80
2023/07/01 04:48:34;;;;;;;93.47;50.97;;;;;;;21.74;74.24;100474.56;6193902;22;20391;-80
2023/07/01 04:51:01;;;;;;;92.90;53.40;;;;;;;21.39;73.98;100407.38;6167801;22;20321;-79
2023/07/01 04:53:27;;;;;;;96.82;59.63;;;;;;;21.78;74.58;100492.03;6199632;22;20031;-81
2023/07/01 04:55:54;;;;;;;108.60;62.33;;;;;;;21.74;74.48;100474.56;6173767;22;20020;-79
2023/07/01 04:58:22;;;;;;;103.85;58.58;;;;;;;21.10;74.23;100354.66;6174007;22;20027;-79
2023/07/01 05:00:51;;;;;;;93.47;56.80;;;;;;;21.27;73.67;100387.44;6147956;22;20223;-79
2023/07/01 05:03:21;;;;;;;99.82;59.80;;;;;;;21.71;74.24;100475.00;6182149;22;20294;-80
2023/07/01 05:05:48;;;;;;;93.93;58.53;;;;;;;21.44;74.93;100448.06;6201754;22;20191;-80
2023/07/01 05:08:18;;;;;;;102.38;57.92;;;;;;;21.64;75.11;100485.81;6178591;22;20810;-80
2023/07/01 05:10:45;;;;;;;95.97;57.30;;;;;;;21.40;75.10;100446.81;6219387;22;20194;-81
2023/07/01 05:13:12;;;;;;;105.97;59.33;;;;;;;21.46;75.14;100450.56;6199110;22;20218;-80
2023/07/01 05:15:40;;;;;;;97.57;56.35;;;;;;;21.68;74.38;100483.53;6210624;22;20347;-81
2023/07/01 05:18:13;;;;;;;97.18;54.03;;;;;;;21.57;75.17;100478.78;6229377;22;20362;-82
2023/07/01 05:20:40;;;;;;;103.40;60.72;;;;;;;20.81;75.15;100364.88;6217121;22;20019;-80
2023/07/01 05:23:10;;;;;;;90.68;52.70;;;;;;;21.50;75.33;100463.41;6231337;22;20034;-81
2023/07/01 05:25:37;;;;;;;76.03;46.78;;;;;;;21.61;75.12;100464.63;6202581;22;20062;-80
2023/07/01 05:28:04;;;;;;;101.03;60.22;;;;;;;21.71;74.66;100469.59;6172121;22;20154;-79
2023/07/01 05:30:30;;;;;;;95.38;54.58;;;;;;;21.82;74.17;100477.06;6187997;22;20486;-79
2023/07/01 05:32:57;;;;;;;91.97;55.97;;;;;;;21.89;74.45;100495.91;6192821;22;20023;-81
2023/07/01 05:35:24;;;;;;;85.65;52.25;;;;;;;21.69;73.49;100439.25;6209851;22;20012;-80
2023/07/01 05:37:54;;;;;;;85.97;53.80;;;;;;;21.85;73.03;100459.56;6193364;22;20102;-80
2023/07/01 05:40:21;;;;;;;101.28;58.97;;;;;;;21.22;73.12;100379.16;6205151;22;20447;-80
2023/07/01 05:42:53;;;;;;;96.72;56.47;;;;;;;21.96;73.91;100484.03;6196315;22;20461;-81
2023/07/01 05:45:27;;;;;;;92.30;53.45;;;;;;;22.12;73.65;100495.44;6188344;22;20052;-81
2023/07/01 05:48:01;;;;;;;88.50;54.55;;;;;;;21.88;72.74;100456.44;6211308;22;20015;-82
2023/07/01 05:50:32;;;;;;;71.28;44.85;;;;;;;21.98;73.13;100465.72;6205305;22;20360;-82
2023/07/01 05:52:59;;;;;;;71.45;46.63;;;;;;;22.32;72.44;100503.47;6155348;22;20330;-82
2023/07/01 05:55:31;;;;;;;81.95;50.60;;;;;;;22.38;72.28;100499.91;6161219;22;20325;-82
2023/07/01 05:58:05;;;;;;;91.45;54.30;;;;;;;22.22;71.54;100466.06;6150121;22;20216;-82
2023/07/01 06:00:37;;;;;;;87.30;54.55;;;;;;;22.43;71.40;100510.06;6201021;22;20022;-81
2023/07/01 06:03:13;;;;;;;94.85;54.75;;;;;;;22.15;71.44;100459.84;6184882;22;20498;-81
2023/07/01 06:05:43;;;;;;;87.10;50.80;;;;;;;22.27;71.15;100474.38;6181321;22;20086;-79
2023/07/01 06:08:09;;;;;;;106.63;60.03;;;;;;;22.22;71.02;100473.38;6179871;22;20023;-81
2023/07/01 06:10:37;;;;;;;99.80;57.38;;;;;;;21.15;71.28;100316.25;6217685;22;20104;-82
2023/07/01 06:13:04;;;;;;;71.82;42.85;;;;;;;22.26;72.50;100509.72;6209355;22;20579;-81
2023/07/01 06:15:32;;;;;;;90.50;55.17;;;;;;;22.33;72.16;100519.47;6205154;22;20058;-82
2023/07/01 06:17:59;;;;;;;63.45;41.17;;;;;;;22.38;71.87;100524.25;6197776;22;20193;-80
2023/07/01 06:20:31;;;;;;;76.30;45.88;;;;;;;22.26;72.31;100479.97;6234443;22;20247;-81
2023/07/01 06:23:05;;;;;;;70.65;44.40;;;;;;;22.27;71.80;100468.97;6210783;22;20110;-82
2023/07/01 06:25:32;;;;;;;79.78;50.58;;;;;;;22.19;71.98;100455.66;6208190;22;20510;-81
2023/07/01 06:28:00;;;;;;;81.25;49.83;;;;;;;22.45;71.21;100494.44;6201609;22;20500;-81
2023/07/01 06:30:27;;;;;;;76.57;47.50;;;;;;;22.38;71.18;100491.78;6234324;22;20097;-80
2023/07/01 06:32:53;;;;;;;72.53;47.10;;;;;;;22.43;70.79;100520.88;6239167;22;20090;-80
2023/07/01 06:35:21;;;;;;;77.28;46.03;;;;;;;22.31;71.14;100524.28;6201351;22;20220;-81
2023/07/01 06:37:47;;;;;;;75.75;46.15;;;;;;;22.28;71.18;100524.72;6224364;22;20034;-79
2023/07/01 06:40:14;;;;;;;84.95;49.78;;;;;;;22.25;72.09;100527.81;6228812;22;20062;-80
2023/07/01 06:42:42;;;;;;;73.20;45.67;;;;;;;22.25;72.30;100527.81;6234470;22;20509;-81
2023/07/01 06:45:09;;;;;;;74.70;48.28;;;;;;;21.76;71.69;100446.28;6233588;22;20062;-80
2023/07/01 06:47:40;;;;;;;79.30;50.72;;;;;;;22.01;71.88;100479.88;6206083;22;20038;-82
2023/07/01 06:50:08;;;;;;;81.43;52.13;;;;;;;22.19;72.28;100520.56;6217780;22;20019;-80
2023/07/01 06:52:37;;;;;;;86.35;53.40;;;;;;;21.00;71.87;100322.72;6213977;22;20022;-80
2023/07/01 06:55:04;;;;;;;84.95;53.33;;;;;;;21.71;71.80;100431.78;6248305;22;20050;-80
2023/07/01 06:57:31;;;;;;;80.03;49.38;;;;;;;22.23;71.99;100526.38;6223968;22;20012;-80
2023/07/01 06:59:58;;;;;;;81.15;49.17;;;;;;;22.15;71.10;100498.50;6251833;22;20069;-79
2023/07/01 07:02:25;;;;;;;77.05;46.70;;;;;;;22.33;71.64;100527.59;6235598;22;20024;-82
2023/07/01 07:04:52;;;;;;;80.15;48.42;;;;;;;21.86;71.11;100472.84;6224388;22;20546;-79
2023/07/01 07:07:19;;;;;;;77.80;47.47;;;;;;;22.25;71.78;100545.94;6219234;22;20371;-79
2023/07/01 07:09:45;;;;;;;80.55;49.78;;;;;;;22.23;71.94;100543.44;6207303;22;20499;-79
2023/07/01 07:12:16;;;;;;;78.22;47.42;;;;;;;22.09;71.41;100517.47;6219719;22;20305;-80
2023/07/01 07:14:44;;;;;;;62.25;39.55;;;;;;;22.03;71.97;100499.41;6238662;22;20020;-80
2023/07/01 07:17:11;;;;;;;72.90;44.67;;;;;;;22.38;71.30;100556.69;6222095;22;20492;-80
2023/07/01 07:19:38;;;;;;;75.65;46.15;;;;;;;22.44;70.28;100563.13;6213760;22;20388;-79
2023/07/01 07:22:05;;;;;;;70.80;41.97;;;;;;;22.39;71.07;100559.19;6163078;22;20050;-80
2023/07/01 07:24:32;;;;;;;68.25;43.50;;;;;;;22.45;69.25;100559.34;6173528;22;20099;-81
2023/07/01 07:27:01;;;;;;;63.83;41.15;;;;;;;21.85;70.05;100487.44;6182484;22;20322;-81
2023/07/01 07:29:33;;;;;;;65.43;40.13;;;;;;;22.35;70.79;100578.75;6173808;22;20019;-81
2023/07/01 07:32:02;;;;;;;72.80;41.58;;;;;;;22.34;70.46;100556.28;6147996;22;20425;-79
2023/07/01 07:34:39;;;;;;;66.13;41.67;;;;;;;22.57;69.72;100560.31;6190432;22;20160;-81
2023/07/01 07:37:07;;;;;;;65.05;40.30;;;;;;;22.40;69.05;100525.69;6185247;22;20016;-80
2023/07/01 07:39:39;;;;;;;69.22;44.80;;;;;;;22.50;69.05;100559.53;6153434;22;20019;-80
2023/07/01 07:42:09;;;;;;;53.22;33.85;;;;;;;22.44;70.58;100571.22;6142777;22;20136;-79
2023/07/01 07:44:36;;;;;;;75.65;44.88;;;;;;;22.59;69.26;100563.66;6166789;22;20043;-80
2023/07/01 07:47:03;;;;;;;71.88;42.63;;;;;;;22.57;69.37;100563.03;6214459;22;20451;-79
2023/07/01 07:49:30;;;;;;;76.28;47.15;;;;;;;22.46;69.93;100552.91;6241070;22;20383;-81
2023/07/01 07:52:00;;;;;;;72.07;44.40;;;;;;;22.43;69.71;100539.81;6194457;22;20250;-80
2023/07/01 07:54:31;;;;;;;79.07;47.67;;;;;;;22.62;70.09;100555.09;6185172;22;20650;-81
2023/07/01 07:57:00;;;;;;;82.57;48.83;;;;;;;22.75;69.02;100573.97;6152855;22;20519;-80
2023/07/01 07:59:28;;;;;;;88.40;52.55;;;;;;;22.67;69.47;100560.72;6197184;22;20020;-83
2023/07/01 08:01:57;;;;;;;85.82;51.58;;;;;;;22.43;69.27;100515.47;6214145;22;20195;-81
2023/07/01 08:04:32;;;;;;;65.97;42.25;;;;;;;22.75;69.53;100565.84;6222001;22;20198;-80
2023/07/01 08:07:08;;;;;;;67.45;39.03;;;;;;;22.72;69.12;100541.94;6149592;22;20146;-82
2023/07/01 08:09:37;;;;;;;80.57;49.80;;;;;;;22.66;69.35;100537.38;6134647;22;20146;-78
2023/07/01 08:12:04;;;;;;;78.50;49.58;;;;;;;22.60;68.27;100513.94;6206974;22;20016;-79
2023/07/01 08:14:31;;;;;;;78.63;48.90;;;;;;;22.94;67.87;100547.00;6203601;22;20077;-80
2023/07/01 08:16:59;;;;;;;76.57;46.00;;;;;;;22.82;68.61;100531.47;6186321;22;20042;-81
2023/07/01 08:19:26;;;;;;;78.13;48.35;;;;;;;22.80;67.74;100517.31;6190483;22;20016;-80
2023/07/01 08:21:54;;;;;;;65.15;41.85;;;;;;;22.45;68.54;100437.63;6228142;22;20074;-83
2023/07/01 08:24:26;;;;;;;78.78;46.30;;;;;;;23.22;67.94;100544.72;6198542;22;20030;-82
2023/07/01 08:26:54;;;;;;;61.92;40.38;;;;;;;23.25;67.46;100522.63;6176313;22;20027;-81
2023/07/01 08:29:21;;;;;;;70.57;45.75;;;;;;;23.31;66.54;100511.94;6215860;22;20378;-82
2023/07/01 08:31:48;;;;;;;67.93;42.53;;;;;;;23.21;67.10;100504.34;6240049;22;20110;-80
2023/07/01 08:34:16;;;;;;;75.75;46.17;;;;;;;22.64;66.79;100412.31;6217475;22;20019;-80
2023/07/01 08:36:43;;;;;;;79.95;48.88;;;;;;;23.17;66.61;100503.94;6250669;22;20107;-81
2023/07/01 08:39:10;;;;;;;70.63;45.03;;;;;;;23.21;67.05;100512.47;6233467;22;20015;-83
2023/07/01 08:41:48;;;;;;;65.97;43.50;;;;;;;23.39;67.02;100536.03;6205697;22;20051;-83
2023/07/01 08:44:18;;;;;;;68.38;43.88;;;;;;;23.43;66.90;100538.06;6225456;22;20487;-78
2023/07/01 08:46:46;;;;;;;65.07;42.20;;;;;;;23.31;66.02;100507.34;6158107;22;20340;-79
2023/07/01 08:49:16;;;;;;;66.50;41.78;;;;;;;23.45;65.09;100518.91;6222670;22;20030;-79
2023/07/01 08:51:44;;;;;;;63.70;40.88;;;;;;;23.50;64.86;100519.06;6235349;22;20503;-79
2023/07/01 08:54:12;;;;;;;69.85;42.97;;;;;;;23.52;65.85;100526.94;6189777;22;20420;-79
2023/07/01 08:56:39;;;;;;;64.20;40.72;;;;;;;23.29;65.79;100504.03;6209261;22;20020;-80
2023/07/01 08:59:09;;;;;;;50.72;33.03;;;;;;;23.00;65.38;100452.22;6218454;22;20065;-80
2023/07/01 09:01:38;;;;;;;42.58;27.40;;;;;;;23.37;66.11;100528.13;6220249;22;20030;-80
2023/07/01 09:04:05;;;;;;;61.88;39.72;;;;;;;23.50;65.63;100537.16;6215525;22;20023;-80
2023/07/01 09:06:32;;;;;;;62.28;38.03;;;;;;;23.20;65.91;100489.94;6214550;22;20095;-82
2023/07/01 09:09:01;;;;;;;61.45;38.53;;;;;;;23.45;65.68;100514.31;6225857;22;20085;-83
2023/07/01 09:11:28;;;;;;;62.75;39.85;;;;;;;23.55;65.43;100527.34;6228386;22;20058;-82
2023/07/01 09:13:56;;;;;;;64.43;40.58;;;;;;;23.47;65.65;100522.19;6230789;22;20321;-80
2023/07/01 09:16:35;;;;;;;61.47;40.03;;;;;;;23.60;65.49;100527.50;6235672;22;20027;-80
2023/07/01 09:19:28;;;;;;;62.20;39.70;;;;;;;23.29;64.20;100468.00;6210940;22;20024;-80
2023/07/01 09:22:08;;;;;;;68.68;40.78;;;;;;;23.30;64.30;100451.50;6202984;22;20098;-78
2023/07/01 09:24:38;;;;;;;60.67;39.40;;;;;;;23.76;65.19;100522.56;6229923;22;20077;-80
2023/07/01 09:27:09;;;;;;;61.40;38.42;;;;;;;23.84;65.24;100516.84;6221810;22;20361;-80
2023/07/01 09:29:40;;;;;;;56.33;35.23;;;;;;;23.97;64.55;100522.09;6253099;22;20020;-78
2023/07/01 09:32:08;;;;;;;63.00;39.95;;;;;;;24.07;64.38;100516.97;6255405;22;20102;-81
2023/07/01 09:34:58;;;;;;;55.20;34.13;;;;;;;22.89;63.77;100305.94;6230129;22;20459;-81
2023/07/01 09:37:26;;;;;;;55.90;36.95;;;;;;;24.19;63.79;100497.22;6258458;22;20020;-79
2023/07/01 09:39:52;;;;;;;62.50;40.05;;;;;;;24.26;63.01;100497.97;6230569;22;20317;-79
2023/07/01 09:42:19;;;;;;;60.90;38.63;;;;;;;24.16;63.35;100470.56;6215807;22;20020;-79
2023/07/01 09:45:06;;;;;;;58.17;39.50;;;;;;;24.36;62.97;100494.72;6227381;22;20016;-79
2023/07/01 09:47:36;;;;;;;62.90;38.60;;;;;;;24.25;63.54;100485.47;6236361;22;20271;-78
2023/07/01 09:50:04;;;;;;;63.13;41.13;;;;;;;24.38;62.58;100492.59;6215098;22;20027;-81
2023/07/01 09:52:32;;;;;;;63.63;38.25;;;;;;;23.76;62.97;100395.19;6218006;22;20023;-80
2023/07/01 09:55:03;;;;;;;57.40;36.17;;;;;;;24.08;62.55;100442.72;6214241;22;20024;-80
2023/07/01 09:57:33;;;;;;;57.45;37.53;;;;;;;23.88;62.44;100406.91;6221841;22;20020;-79
2023/07/01 10:00:00;;;;;;;52.58;33.78;;;;;;;23.57;62.23;100343.72;6200167;22;20023;-82
2023/07/01 10:02:27;;;;;;;48.45;30.60;;;;;;;23.77;62.71;100361.63;6215927;22;20028;-77
2023/07/01 10:04:55;;;;;;;55.85;35.30;;;;;;;24.69;61.01;100484.22;6238536;22;20034;-79
2023/07/01 10:07:22;;;;;;;53.40;34.85;;;;;;;24.68;61.46;100484.44;6231612;22;20458;-77
2023/07/01 10:09:51;;;;;;;50.83;30.15;;;;;;;24.64;60.68;100456.16;6225614;22;20514;-81
2023/07/01 10:12:19;;;;;;;45.17;29.38;;;;;;;24.90;61.37;100479.28;6226472;22;20020;-79
2023/07/01 10:14:50;;;;;;;52.25;30.65;;;;;;;25.02;60.72;100484.75;6214826;22;20999;-80
2023/07/01 10:17:18;;;;;;;;;;;;;;;25.06;59.65;100477.78;6218586;22;20077;-80
2023/07/01 10:19:48;;;;;;;46.55;30.30;;;;;;;24.83;59.98;100455.00;6227528;22;20254;-80
2023/07/01 10:22:25;;;;;;;58.15;38.03;;;;;;;25.02;60.83;100479.31;6213461;22;20097;-81
2023/07/01 10:25:02;;;;;;;52.42;32.85;;;;;;;25.20;59.74;100484.69;6253677;22;20106;-79
2023/07/01 10:27:42;;;;;;;54.55;32.85;;;;;;;25.20;60.10;100490.13;6248018;22;20033;-80
2023/07/01 10:30:16;;;;;;;43.83;30.33;;;;;;;25.23;60.47;100486.91;6195890;22;20558;-81
2023/07/01 10:32:50;;;;;;;61.70;37.25;;;;;;;25.12;60.00;100465.97;6164839;22;20034;-81
2023/07/01 10:35:27;;;;;;;55.53;37.15;;;;;;;25.05;61.34;100478.84;6195959;22;20460;-81
2023/07/01 10:38:25;;;;;;;60.28;36.63;;;;;;;25.03;60.81;100475.56;6185250;22;20031;-81
2023/07/01 10:41:02;;;;;;;58.95;35.78;;;;;;;24.97;61.03;100465.63;6161722;22;20166;-80
2023/07/01 10:43:38;;;;;;;49.50;32.08;;;;;;;25.16;60.63;100481.56;6160852;22;20023;-79
2023/07/01 10:46:12;;;;;;;50.20;33.03;;;;;;;25.21;60.34;100467.31;6206750;22;20339;-78
2023/07/01 10:48:43;;;;;;;43.40;29.02;;;;;;;24.70;59.84;100376.47;6182589;22;20331;-79
2023/07/01 10:51:12;;;;;;;46.53;29.30;;;;;;;25.33;58.28;100443.69;6207939;22;20054;-82
2023/07/01 10:54:02;;;;;;;49.47;33.58;;;;;;;25.52;58.66;100468.00;6187637;22;20219;-80
2023/07/01 10:56:38;;;;;;;35.03;22.95;;;;;;;25.47;59.07;100435.28;6226091;22;20455;-80
2023/07/01 10:59:26;;;;;;;44.88;30.23;;;;;;;25.31;59.21;100375.16;6173905;22;20020;-80
2023/07/01 11:02:01;;;;;;;45.63;30.85;;;;;;;25.01;56.14;100277.53;6233191;22;20281;-80
2023/07/01 11:05:02;;;;;;;41.92;28.88;;;;;;;26.06;56.04;100422.34;6171325;22;20020;-81
2023/07/01 11:07:41;;;;;;;39.42;25.80;;;;;;;26.29;57.12;100450.50;6198345;22;20528;-82
2023/07/01 11:10:15;;;;;;;39.20;26.52;;;;;;;26.46;55.12;100436.94;6191964;22;20173;-80
2023/07/01 11:12:52;;;;;;;38.55;25.40;;;;;;;26.60;54.33;100443.75;6161722;22;20552;-79
2023/07/01 11:15:27;;;;;;;31.83;20.52;;;;;;;26.76;55.37;100444.84;6201669;22;20151;-81
2023/07/01 11:17:58;;;;;;;31.00;19.92;;;;;;;26.79;54.82;100426.09;6197871;22;20419;-80
2023/07/01 11:20:25;;;;;;;32.53;18.00;;;;;;;27.14;50.87;100440.50;6208001;22;20023;-79
2023/07/01 11:22:54;;;;;;;26.00;16.90;;;;;;;26.93;52.62;100401.25;6222830;22;20094;-79
2023/07/01 11:25:21;;;;;;;38.97;20.35;;;;;;;27.04;50.56;100394.88;6225544;22;20409;-79